sensor_id;sensor_type;location;lat;lon;timestamp;pressure;altitude;pressure_sealevel;temperature;humidity
9110;BME280;4590;51.462;6.692;2024-03-08T05:31:58;101359.53;;;3.48;60.07
9110;BME280;4590;51.462;6.692;2024-03-08T05:34:24;101354.50;;;3.40;61.30
9110;BME280;4590;51.462;6.692;2024-03-08T05:36:50;101346.09;;;3.42;60.20
9110;BME280;4590;51.462;6.692;2024-03-08T05:39:16;101353.34;;;3.36;60.65
9110;BME280;4590;51.462;6.692;2024-03-08T05:41:42;101345.72;;;3.22;62.45
9110;BME280;4590;51.462;6.692;2024-03-08T05:44:08;101352.50;;;3.36;60.75
9110;BME280;4590;51.462;6.692;2024-03-08T05:46:34;101351.44;;;3.37;60.17
9110;BME280;4590;51.462;6.692;2024-03-08T05:49:01;101347.66;;;3.38;60.64
9110;BME280;4590;51.462;6.692;2024-03-08T05:51:32;101349.53;;;3.37;60.45
9110;BME280;4590;51.462;6.692;2024-03-08T05:54:00;101355.63;;;3.28;61.13
9110;BME280;4590;51.462;6.692;2024-03-08T05:56:26;101342.88;;;3.28;61.31
9110;BME280;4590;51.462;6.692;2024-03-08T05:58:51;101339.31;;;3.28;61.36
9110;BME280;4590;51.462;6.692;2024-03-08T06:01:16;101333.38;;;3.31;60.64
9110;BME280;4590;51.462;6.692;2024-03-08T06:03:42;101338.72;;;3.26;61.43
9110;BME280;4590;51.462;6.692;2024-03-08T06:06:13;101334.00;;;3.21;61.31
9110;BME280;4590;51.462;6.692;2024-03-08T06:08:39;101335.53;;;3.29;61.39
9110;BME280;4590;51.462;6.692;2024-03-08T06:11:05;101340.88;;;3.24;61.70
9110;BME280;4590;51.462;6.692;2024-03-08T06:13:31;101339.56;;;3.26;61.17
9110;BME280;4590;51.462;6.692;2024-03-08T06:15:57;101330.09;;;3.29;61.19
9110;BME280;4590;51.462;6.692;2024-03-08T06:18:22;101334.19;;;3.31;60.61
9110;BME280;4590;51.462;6.692;2024-03-08T06:20:47;101329.25;;;3.28;60.87
9110;BME280;4590;51.462;6.692;2024-03-08T06:23:13;101330.09;;;3.29;61.11
9110;BME280;4590;51.462;6.692;2024-03-08T06:25:43;101333.19;;;3.21;61.18
9110;BME280;4590;51.462;6.692;2024-03-08T06:28:08;101330.56;;;3.26;61.45
9110;BME280;4590;51.462;6.692;2024-03-08T06:30:35;101326.19;;;3.25;61.04
9110;BME280;4590;51.462;6.692;2024-03-08T06:33:01;101319.69;;;3.26;60.90
9110;BME280;4590;51.462;6.692;2024-03-08T06:35:26;101330.09;;;3.29;60.93
9110;BME280;4590;51.462;6.692;2024-03-08T06:37:51;101322.75;;;3.29;61.29
9110;BME280;4590;51.462;6.692;2024-03-08T06:40:18;101327.59;;;3.27;61.29
9110;BME280;4590;51.462;6.692;2024-03-08T06:42:43;101325.19;;;3.31;61.33
9110;BME280;4590;51.462;6.692;2024-03-08T06:45:09;101326.19;;;3.25;61.56
9110;BME280;4590;51.462;6.692;2024-03-08T06:47:36;101330.91;;;3.29;61.95
9110;BME280;4590;51.462;6.692;2024-03-08T06:50:02;101330.66;;;3.31;61.63
9110;BME280;4590;51.462;6.692;2024-03-08T06:52:31;101328.84;;;3.36;61.73
9110;BME280;4590;51.462;6.692;2024-03-08T06:54:57;101316.66;;;3.39;61.51
9110;BME280;4590;51.462;6.692;2024-03-08T06:57:23;101327.53;;;3.39;61.41
9110;BME280;4590;51.462;6.692;2024-03-08T06:59:49;101327.41;;;3.45;61.67
9110;BME280;4590;51.462;6.692;2024-03-08T07:02:14;101324.41;;;3.47;61.47
9110;BME280;4590;51.462;6.692;2024-03-08T07:04:40;101321.97;;;3.45;62.18
9110;BME280;4590;51.462;6.692;2024-03-08T07:07:06;101327.97;;;3.47;62.11
9110;BME280;4590;51.462;6.692;2024-03-08T07:09:35;101323.28;;;3.43;62.38
9110;BME280;4590;51.462;6.692;2024-03-08T07:12:02;101318.59;;;3.55;61.28
9110;BME280;4590;51.462;6.692;2024-03-08T07:14:28;101320.72;;;3.53;62.00
9110;BME280;4590;51.462;6.692;2024-03-08T07:16:55;101332.84;;;3.62;61.87
9110;BME280;4590;51.462;6.692;2024-03-08T07:19:20;101313.25;;;3.60;61.79
9110;BME280;4590;51.462;6.692;2024-03-08T07:21:46;101311.00;;;3.74;61.66
9110;BME280;4590;51.462;6.692;2024-03-08T07:24:12;101318.16;;;3.80;61.36
9110;BME280;4590;51.462;6.692;2024-03-08T07:27:06;101322.63;;;3.86;61.24
9110;BME280;4590;51.462;6.692;2024-03-08T07:29:34;101331.63;;;3.86;61.49
9110;BME280;4590;51.462;6.692;2024-03-08T07:32:00;101319.25;;;3.96;61.57
9110;BME280;4590;51.462;6.692;2024-03-08T07:34:25;101312.06;;;4.06;61.24
9110;BME280;4590;51.462;6.692;2024-03-08T07:36:52;101318.50;;;4.17;61.05
9110;BME280;4590;51.462;6.692;2024-03-08T07:39:17;101307.97;;;4.26;61.28
9110;BME280;4590;51.462;6.692;2024-03-08T07:41:44;101312.69;;;4.30;61.12
9110;BME280;4590;51.462;6.692;2024-03-08T07:44:09;101309.69;;;4.48;60.47
9110;BME280;4590;51.462;6.692;2024-03-08T07:46:35;101303.03;;;4.61;60.59
9110;BME280;4590;51.462;6.692;2024-03-08T07:49:02;101300.75;;;4.75;60.08
9110;BME280;4590;51.462;6.692;2024-03-08T07:51:31;101299.16;;;4.79;59.13
9110;BME280;4590;51.462;6.692;2024-03-08T07:53:56;101288.00;;;5.02;60.11
9110;BME280;4590;51.462;6.692;2024-03-08T07:56:22;101279.84;;;5.07;59.65
9110;BME280;4590;51.462;6.692;2024-03-08T07:58:47;101275.78;;;5.10;59.22
9110;BME280;4590;51.462;6.692;2024-03-08T08:01:17;101268.38;;;5.32;59.11
9110;BME280;4590;51.462;6.692;2024-03-08T08:03:43;101269.47;;;5.36;58.80
9110;BME280;4590;51.462;6.692;2024-03-08T08:06:12;101269.34;;;5.53;57.85
9110;BME280;4590;51.462;6.692;2024-03-08T08:08:44;101267.59;;;5.69;58.46
9110;BME280;4590;51.462;6.692;2024-03-08T08:11:10;101262.06;;;5.90;57.99
9110;BME280;4590;51.462;6.692;2024-03-08T08:13:36;101262.47;;;5.77;55.92
9110;BME280;4590;51.462;6.692;2024-03-08T08:16:02;101252.56;;;6.03;56.95
9110;BME280;4590;51.462;6.692;2024-03-08T08:18:28;101248.28;;;6.12;56.87
9110;BME280;4590;51.462;6.692;2024-03-08T08:20:55;101254.88;;;6.21;57.14
9110;BME280;4590;51.462;6.692;2024-03-08T08:23:21;101245.09;;;6.36;57.12
9110;BME280;4590;51.462;6.692;2024-03-08T08:25:47;101241.38;;;6.57;56.17
9110;BME280;4590;51.462;6.692;2024-03-08T08:28:18;101235.16;;;6.82;56.62
9110;BME280;4590;51.462;6.692;2024-03-08T08:31:00;101231.94;;;7.05;55.98
9110;BME280;4590;51.462;6.692;2024-03-08T08:33:27;101218.84;;;7.22;55.57
9110;BME280;4590;51.462;6.692;2024-03-08T08:35:52;101228.13;;;7.42;55.38
9110;BME280;4590;51.462;6.692;2024-03-08T08:38:19;101217.44;;;7.40;52.83
9110;BME280;4590;51.462;6.692;2024-03-08T08:40:45;101205.69;;;7.70;54.59
9110;BME280;4590;51.462;6.692;2024-03-08T08:43:11;101204.03;;;7.59;52.02
9110;BME280;4590;51.462;6.692;2024-03-08T08:45:37;101210.06;;;7.86;53.52
9110;BME280;4590;51.462;6.692;2024-03-08T08:48:04;101200.16;;;8.00;53.28
9110;BME280;4590;51.462;6.692;2024-03-08T08:50:30;101197.97;;;7.92;52.52
9110;BME280;4590;51.462;6.692;2024-03-08T08:52:56;101182.81;;;8.20;52.51
9110;BME280;4590;51.462;6.692;2024-03-08T08:55:22;101179.06;;;8.01;50.11
9110;BME280;4590;51.462;6.692;2024-03-08T08:57:50;101178.09;;;8.36;51.76
9110;BME280;4590;51.462;6.692;2024-03-08T09:00:17;101172.44;;;8.71;51.98
9110;BME280;4590;51.462;6.692;2024-03-08T09:02:44;101168.53;;;8.83;51.26
9110;BME280;4590;51.462;6.692;2024-03-08T09:05:10;101171.88;;;8.74;48.99
9110;BME280;4590;51.462;6.692;2024-03-08T09:07:36;101158.53;;;9.02;50.88
9110;BME280;4590;51.462;6.692;2024-03-08T09:10:07;101170.78;;;8.75;48.44
9110;BME280;4590;51.462;6.692;2024-03-08T09:12:53;101156.53;;;9.12;49.51
9110;BME280;4590;51.462;6.692;2024-03-08T09:15:18;101149.63;;;9.15;48.88
9110;BME280;4590;51.462;6.692;2024-03-08T09:17:43;101152.06;;;9.22;48.70
9110;BME280;4590;51.462;6.692;2024-03-08T09:20:10;101141.63;;;9.24;48.12
9110;BME280;4590;51.462;6.692;2024-03-08T09:22:39;101146.88;;;9.15;48.26
9110;BME280;4590;51.462;6.692;2024-03-08T09:25:05;101147.22;;;9.42;48.20
9110;BME280;4590;51.462;6.692;2024-03-08T09:27:32;101144.97;;;9.44;48.00
9110;BME280;4590;51.462;6.692;2024-03-08T09:29:58;101147.63;;;9.60;47.75
9110;BME280;4590;51.462;6.692;2024-03-08T09:32:24;101136.09;;;9.58;47.21
9110;BME280;4590;51.462;6.692;2024-03-08T09:34:49;101135.81;;;9.59;44.79
9110;BME280;4590;51.462;6.692;2024-03-08T09:37:15;101125.22;;;9.71;45.50
9110;BME280;4590;51.462;6.692;2024-03-08T09:39:40;101129.44;;;9.88;45.18
9110;BME280;4590;51.462;6.692;2024-03-08T09:42:06;101131.34;;;10.11;46.24
9110;BME280;4590;51.462;6.692;2024-03-08T09:44:31;101122.41;;;10.00;46.05
9110;BME280;4590;51.462;6.692;2024-03-08T09:46:58;101106.97;;;10.04;46.08
9110;BME280;4590;51.462;6.692;2024-03-08T09:49:24;101109.59;;;10.14;46.07
9110;BME280;4590;51.462;6.692;2024-03-08T09:51:50;101104.59;;;10.22;45.52
9110;BME280;4590;51.462;6.692;2024-03-08T09:54:16;101104.50;;;10.27;45.20
9110;BME280;4590;51.462;6.692;2024-03-08T09:56:42;101110.38;;;9.96;45.23
9110;BME280;4590;51.462;6.692;2024-03-08T09:59:09;101105.22;;;10.13;44.71
9110;BME280;4590;51.462;6.692;2024-03-08T10:01:35;101095.03;;;10.14;44.91
9110;BME280;4590;51.462;6.692;2024-03-08T10:04:02;101094.53;;;9.88;45.08
9110;BME280;4590;51.462;6.692;2024-03-08T10:06:27;101094.78;;;10.10;44.79
9110;BME280;4590;51.462;6.692;2024-03-08T10:08:52;101090.59;;;9.94;45.13
9110;BME280;4590;51.462;6.692;2024-03-08T10:11:18;101077.16;;;9.69;45.10
9110;BME280;4590;51.462;6.692;2024-03-08T10:13:45;101085.78;;;10.29;44.74
9110;BME280;4590;51.462;6.692;2024-03-08T10:16:11;101076.19;;;10.26;44.49
9110;BME280;4590;51.462;6.692;2024-03-08T10:18:37;101075.53;;;10.34;44.21
9110;BME280;4590;51.462;6.692;2024-03-08T10:21:03;101067.94;;;10.45;43.80
9110;BME280;4590;51.462;6.692;2024-03-08T10:23:30;101070.69;;;10.45;44.17
9110;BME280;4590;51.462;6.692;2024-03-08T10:25:55;101063.78;;;10.66;43.61
9110;BME280;4590;51.462;6.692;2024-03-08T10:28:23;101056.66;;;10.65;43.65
9110;BME280;4590;51.462;6.692;2024-03-08T10:30:50;101058.81;;;10.68;43.38
9110;BME280;4590;51.462;6.692;2024-03-08T10:33:15;101069.22;;;10.34;44.11
9110;BME280;4590;51.462;6.692;2024-03-08T10:35:40;101036.75;;;10.54;43.57
9110;BME280;4590;51.462;6.692;2024-03-08T10:38:08;101052.69;;;10.71;43.58
9110;BME280;4590;51.462;6.692;2024-03-08T10:40:38;101052.38;;;10.73;43.24
9110;BME280;4590;51.462;6.692;2024-03-08T10:43:07;101037.13;;;10.80;42.96
9110;BME280;4590;51.462;6.692;2024-03-08T10:45:38;101038.53;;;10.78;42.95
9110;BME280;4590;51.462;6.692;2024-03-08T10:48:31;101032.41;;;10.67;42.92
9110;BME280;4590;51.462;6.692;2024-03-08T10:51:02;101028.44;;;10.73;43.38
9110;BME280;4590;51.462;6.692;2024-03-08T10:53:28;101023.66;;;10.79;43.05
9110;BME280;4590;51.462;6.692;2024-03-08T10:55:56;101023.66;;;10.79;42.06
9110;BME280;4590;51.462;6.692;2024-03-08T10:58:26;101021.13;;;10.50;42.57
9110;BME280;4590;51.462;6.692;2024-03-08T11:00:55;101008.94;;;11.02;42.61
9110;BME280;4590;51.462;6.692;2024-03-08T11:06:05;101000.94;;;11.33;42.46
9110;BME280;4590;51.462;6.692;2024-03-08T11:08:31;101000.81;;;11.11;42.15
9110;BME280;4590;51.462;6.692;2024-03-08T11:10:56;100990.31;;;11.40;41.99
9110;BME280;4590;51.462;6.692;2024-03-08T11:13:35;100994.41;;;11.29;40.65
9110;BME280;4590;51.462;6.692;2024-03-08T11:16:01;100976.16;;;11.47;41.61
9110;BME280;4590;51.462;6.692;2024-03-08T11:18:26;100977.06;;;11.42;41.75
9110;BME280;4590;51.462;6.692;2024-03-08T11:20:55;100973.28;;;11.52;40.69
9110;BME280;4590;51.462;6.692;2024-03-08T11:23:23;100961.44;;;11.51;41.52
9110;BME280;4590;51.462;6.692;2024-03-08T11:25:49;100965.13;;;11.33;41.09
9110;BME280;4590;51.462;6.692;2024-03-08T11:28:23;100961.72;;;11.50;40.97
9110;BME280;4590;51.462;6.692;2024-03-08T11:33:24;100957.16;;;11.45;40.19
9110;BME280;4590;51.462;6.692;2024-03-08T11:35:51;100959.31;;;11.76;41.05
9110;BME280;4590;51.462;6.692;2024-03-08T11:38:17;100954.59;;;11.63;41.30
9110;BME280;4590;51.462;6.692;2024-03-08T11:40:46;100957.25;;;11.54;41.11
9110;BME280;4590;51.462;6.692;2024-03-08T11:43:11;100951.94;;;11.71;41.16
9110;BME280;4590;51.462;6.692;2024-03-08T11:45:37;100942.66;;;11.40;41.71
9110;BME280;4590;51.462;6.692;2024-03-08T11:48:03;100943.47;;;11.54;41.48
9110;BME280;4590;51.462;6.692;2024-03-08T11:50:30;100933.19;;;11.32;42.08
9110;BME280;4590;51.462;6.692;2024-03-08T11:53:05;100941.13;;;10.93;42.24
9110;BME280;4590;51.462;6.692;2024-03-08T11:55:31;100935.41;;;11.03;42.73
9110;BME280;4590;51.462;6.692;2024-03-08T11:58:04;100923.91;;;11.01;42.06
9110;BME280;4590;51.462;6.692;2024-03-08T12:00:30;100927.66;;;10.91;42.42
9110;BME280;4590;51.462;6.692;2024-03-08T12:03:07;100911.03;;;10.96;42.70
9110;BME280;4590;51.462;6.692;2024-03-08T12:05:34;100916.03;;;10.80;43.42
9110;BME280;4590;51.462;6.692;2024-03-08T12:08:03;100910.31;;;10.90;42.89
9110;BME280;4590;51.462;6.692;2024-03-08T12:10:30;100912.41;;;10.52;43.30
9110;BME280;4590;51.462;6.692;2024-03-08T12:12:57;100897.69;;;10.43;42.90
9110;BME280;4590;51.462;6.692;2024-03-08T12:15:25;100904.59;;;10.87;43.32
9110;BME280;4590;51.462;6.692;2024-03-08T12:17:52;100902.34;;;10.89;43.32
9110;BME280;4590;51.462;6.692;2024-03-08T12:20:19;100891.75;;;10.69;43.11
9110;BME280;4590;51.462;6.692;2024-03-08T12:22:49;100905.84;;;10.81;42.93
9110;BME280;4590;51.462;6.692;2024-03-08T12:25:17;100879.03;;;11.00;43.03
9110;BME280;4590;51.462;6.692;2024-03-08T12:27:43;100888.50;;;10.94;42.91
9110;BME280;4590;51.462;6.692;2024-03-08T12:30:23;100881.38;;;10.79;42.79
9110;BME280;4590;51.462;6.692;2024-03-08T12:32:51;100859.66;;;10.92;42.99
9110;BME280;4590;51.462;6.692;2024-03-08T12:35:21;100864.44;;;11.00;42.93
9110;BME280;4590;51.462;6.692;2024-03-08T12:37:49;100844.47;;;10.80;42.56
9110;BME280;4590;51.462;6.692;2024-03-08T12:40:14;100850.69;;;11.00;43.39
9110;BME280;4590;51.462;6.692;2024-03-08T12:42:42;100850.88;;;10.89;43.23
9110;BME280;4590;51.462;6.692;2024-03-08T12:45:08;100834.97;;;11.00;42.69
9110;BME280;4590;51.462;6.692;2024-03-08T12:47:35;100832.09;;;11.05;43.03
9110;BME280;4590;51.462;6.692;2024-03-08T12:50:02;100833.03;;;11.01;43.08
9110;BME280;4590;51.462;6.692;2024-03-08T12:52:28;100828.75;;;11.08;42.78
9110;BME280;4590;51.462;6.692;2024-03-08T12:54:55;100817.00;;;11.03;42.74
9110;BME280;4590;51.462;6.692;2024-03-08T12:57:20;100812.94;;;11.14;42.94
9110;BME280;4590;51.462;6.692;2024-03-08T12:59:46;100806.06;;;11.25;42.66
9110;BME280;4590;51.462;6.692;2024-03-08T13:02:11;100806.38;;;11.23;42.31
9110;BME280;4590;51.462;6.692;2024-03-08T13:04:36;100808.75;;;11.16;42.14
9110;BME280;4590;51.462;6.692;2024-03-08T13:07:02;100789.97;;;11.32;41.68
9110;BME280;4590;51.462;6.692;2024-03-08T13:09:27;100787.53;;;11.17;42.07
9110;BME280;4590;51.462;6.692;2024-03-08T13:11:52;100792.81;;;11.27;41.91
9110;BME280;4590;51.462;6.692;2024-03-08T13:14:20;100799.34;;;11.31;41.77
9110;BME280;4590;51.462;6.692;2024-03-08T13:16:45;100781.94;;;11.44;41.77
9110;BME280;4590;51.462;6.692;2024-03-08T13:19:13;100779.06;;;11.49;41.82
9110;BME280;4590;51.462;6.692;2024-03-08T13:21:39;100781.63;;;11.10;41.61
9110;BME280;4590;51.462;6.692;2024-03-08T13:24:04;100780.53;;;11.47;41.31
9110;BME280;4590;51.462;6.692;2024-03-08T13:26:30;100762.81;;;11.62;41.39
9110;BME280;4590;51.462;6.692;2024-03-08T13:28:59;100767.88;;;11.68;41.13
9110;BME280;4590;51.462;6.692;2024-03-08T13:31:24;100745.69;;;11.73;40.69
9110;BME280;4590;51.462;6.692;2024-03-08T13:33:49;100740.69;;;11.75;39.78
9110;BME280;4590;51.462;6.692;2024-03-08T13:36:16;100740.75;;;11.84;39.85
9110;BME280;4590;51.462;6.692;2024-03-08T13:38:47;100743.91;;;11.91;39.55
9110;BME280;4590;51.462;6.692;2024-03-08T13:41:14;100735.97;;;11.98;39.73
9110;BME280;4590;51.462;6.692;2024-03-08T13:43:40;100729.13;;;11.65;38.66
9110;BME280;4590;51.462;6.692;2024-03-08T13:46:05;100736.53;;;12.09;39.37
9110;BME280;4590;51.462;6.692;2024-03-08T13:48:32;100735.50;;;11.96;38.62
9110;BME280;4590;51.462;6.692;2024-03-08T13:50:57;100717.56;;;12.07;38.65
9110;BME280;4590;51.462;6.692;2024-03-08T13:53:23;100711.56;;;12.14;38.21
9110;BME280;4590;51.462;6.692;2024-03-08T13:55:49;100718.59;;;12.28;38.06
9110;BME280;4590;51.462;6.692;2024-03-08T13:58:15;100703.59;;;12.43;37.66
9110;BME280;4590;51.462;6.692;2024-03-08T14:00:40;100706.81;;;12.37;36.48
9110;BME280;4590;51.462;6.692;2024-03-08T14:03:08;100703.47;;;12.17;36.53
9110;BME280;4590;51.462;6.692;2024-03-08T14:05:35;100700.78;;;12.35;36.01
9110;BME280;4590;51.462;6.692;2024-03-08T14:08:02;100672.94;;;12.53;36.21
9110;BME280;4590;51.462;6.692;2024-03-08T14:10:30;100687.72;;;12.57;35.85
9110;BME280;4590;51.462;6.692;2024-03-08T14:12:57;100684.59;;;12.42;35.86
9110;BME280;4590;51.462;6.692;2024-03-08T14:15:22;100680.72;;;12.51;35.59
9110;BME280;4590;51.462;6.692;2024-03-08T14:17:53;100661.56;;;12.55;34.84
9110;BME280;4590;51.462;6.692;2024-03-08T14:20:18;100663.34;;;12.59;35.70
9110;BME280;4590;51.462;6.692;2024-03-08T14:22:43;100652.00;;;12.61;35.76
9110;BME280;4590;51.462;6.692;2024-03-08T14:25:08;100644.84;;;12.60;35.02
9110;BME280;4590;51.462;6.692;2024-03-08T14:27:43;100656.03;;;12.46;34.66
9110;BME280;4590;51.462;6.692;2024-03-08T14:30:09;100657.69;;;12.64;35.35
9110;BME280;4590;51.462;6.692;2024-03-08T14:32:35;100646.16;;;12.62;34.42
9110;BME280;4590;51.462;6.692;2024-03-08T14:35:04;100638.84;;;12.67;35.12
9110;BME280;4590;51.462;6.692;2024-03-08T14:37:29;100646.69;;;12.73;34.76
9110;BME280;4590;51.462;6.692;2024-03-08T14:39:54;100622.00;;;12.85;34.90
9110;BME280;4590;51.462;6.692;2024-03-08T14:42:21;100627.50;;;12.85;34.99
9110;BME280;4590;51.462;6.692;2024-03-08T14:44:47;100622.31;;;12.84;35.09
9110;BME280;4590;51.462;6.692;2024-03-08T14:47:16;100621.34;;;12.88;35.08
9110;BME280;4590;51.462;6.692;2024-03-08T14:49:42;100622.47;;;12.87;34.98
9110;BME280;4590;51.462;6.692;2024-03-08T14:52:07;100618.59;;;12.88;35.05
9110;BME280;4590;51.462;6.692;2024-03-08T14:54:52;100619.81;;;12.48;35.78
9110;BME280;4590;51.462;6.692;2024-03-08T14:57:17;100607.19;;;12.81;35.67
9110;BME280;4590;51.462;6.692;2024-03-08T14:59:43;100606.88;;;12.74;35.50
9110;BME280;4590;51.462;6.692;2024-03-08T15:02:08;100605.41;;;12.85;35.46
9110;BME280;4590;51.462;6.692;2024-03-08T15:04:35;100599.88;;;12.68;35.46
9110;BME280;4590;51.462;6.692;2024-03-08T15:07:01;100596.00;;;12.69;35.05
9110;BME280;4590;51.462;6.692;2024-03-08T15:09:27;100591.75;;;12.54;35.51
9110;BME280;4590;51.462;6.692;2024-03-08T15:11:52;100594.34;;;12.51;35.47
9110;BME280;4590;51.462;6.692;2024-03-08T15:14:19;100583.41;;;12.11;35.06
9110;BME280;4590;51.462;6.692;2024-03-08T15:16:45;100578.94;;;12.41;35.54
9110;BME280;4590;51.462;6.692;2024-03-08T15:19:13;100580.19;;;12.35;35.58
9110;BME280;4590;51.462;6.692;2024-03-08T15:21:40;100587.16;;;12.33;35.87
9110;BME280;4590;51.462;6.692;2024-03-08T15:24:08;100570.66;;;12.50;35.84
9110;BME280;4590;51.462;6.692;2024-03-08T15:26:40;100560.09;;;12.60;35.51
9110;BME280;4590;51.462;6.692;2024-03-08T15:29:06;100565.59;;;12.60;35.86
9110;BME280;4590;51.462;6.692;2024-03-08T15:31:31;100567.06;;;12.75;35.60
9110;BME280;4590;51.462;6.692;2024-03-08T15:33:57;100560.41;;;12.50;35.14
9110;BME280;4590;51.462;6.692;2024-03-08T15:36:29;100570.81;;;12.62;35.68
9110;BME280;4590;51.462;6.692;2024-03-08T15:38:56;100562.38;;;12.67;35.48
9110;BME280;4590;51.462;6.692;2024-03-08T15:41:21;100563.03;;;12.64;35.42
9110;BME280;4590;51.462;6.692;2024-03-08T15:43:47;100564.31;;;12.49;35.36
9110;BME280;4590;51.462;6.692;2024-03-08T15:46:12;100554.91;;;12.59;35.51
9110;BME280;4590;51.462;6.692;2024-03-08T15:48:38;100554.56;;;12.52;35.42
9110;BME280;4590;51.462;6.692;2024-03-08T15:51:05;100560.59;;;12.54;35.53
9110;BME280;4590;51.462;6.692;2024-03-08T15:53:37;100562.38;;;12.50;35.70
9110;BME280;4590;51.462;6.692;2024-03-08T15:56:04;100553.63;;;12.56;35.84
9110;BME280;4590;51.462;6.692;2024-03-08T15:58:31;100551.19;;;12.55;35.62
9110;BME280;4590;51.462;6.692;2024-03-08T16:00:57;100558.78;;;12.32;36.14
9110;BME280;4590;51.462;6.692;2024-03-08T16:03:24;100545.50;;;12.51;36.31
9110;BME280;4590;51.462;6.692;2024-03-08T16:05:50;100556.84;;;12.41;36.50
9110;BME280;4590;51.462;6.692;2024-03-08T16:08:17;100552.28;;;12.37;36.38
9110;BME280;4590;51.462;6.692;2024-03-08T16:10:44;100551.19;;;12.55;36.39
9110;BME280;4590;51.462;6.692;2024-03-08T16:13:16;100549.06;;;12.43;36.53
9110;BME280;4590;51.462;6.692;2024-03-08T16:15:43;100538.31;;;12.33;36.72
9110;BME280;4590;51.462;6.692;2024-03-08T16:18:13;100549.53;;;12.37;36.96
9110;BME280;4590;51.462;6.692;2024-03-08T16:20:39;100545.97;;;12.36;36.90
9110;BME280;4590;51.462;6.692;2024-03-08T16:23:05;100544.34;;;12.26;37.35
9110;BME280;4590;51.462;6.692;2024-03-08T16:25:31;100537.84;;;12.31;36.81
9110;BME280;4590;51.462;6.692;2024-03-08T16:27:56;100536.53;;;12.28;36.81
9110;BME280;4590;51.462;6.692;2024-03-08T16:30:21;100527.53;;;11.80;36.82
9110;BME280;4590;51.462;6.692;2024-03-08T16:32:49;100545.97;;;12.27;36.70
9110;BME280;4590;51.462;6.692;2024-03-08T16:35:19;100540.91;;;12.21;36.50
9110;BME280;4590;51.462;6.692;2024-03-08T16:37:45;100538.47;;;12.19;36.93
9110;BME280;4590;51.462;6.692;2024-03-08T16:40:11;100540.09;;;12.20;36.90
9110;BME280;4590;51.462;6.692;2024-03-08T16:42:46;100534.25;;;12.30;36.90
9110;BME280;4590;51.462;6.692;2024-03-08T16:45:16;100542.38;;;12.18;37.04
9110;BME280;4590;51.462;6.692;2024-03-08T16:47:41;100529.41;;;12.27;37.17
9110;BME280;4590;51.462;6.692;2024-03-08T16:50:07;100532.47;;;12.17;37.31
9110;BME280;4590;51.462;6.692;2024-03-08T16:52:36;100530.28;;;11.80;37.63
9110;BME280;4590;51.462;6.692;2024-03-08T16:55:05;100532.59;;;12.04;37.50
9110;BME280;4590;51.462;6.692;2024-03-08T16:57:34;100529.22;;;12.07;37.81
9110;BME280;4590;51.462;6.692;2024-03-08T16:59:59;100531.00;;;11.63;37.84
9110;BME280;4590;51.462;6.692;2024-03-08T17:02:24;100529.38;;;11.62;38.36
9110;BME280;4590;51.462;6.692;2024-03-08T17:04:50;100544.16;;;11.75;38.42
9110;BME280;4590;51.462;6.692;2024-03-08T17:07:15;100541.94;;;11.85;38.11
9110;BME280;4590;51.462;6.692;2024-03-08T17:09:41;100529.19;;;11.58;38.47
9110;BME280;4590;51.462;6.692;2024-03-08T17:12:06;100534.16;;;11.79;38.32
9110;BME280;4590;51.462;6.692;2024-03-08T17:14:35;100528.16;;;11.77;38.83
9110;BME280;4590;51.462;6.692;2024-03-08T17:17:03;100534.97;;;11.79;38.85
9110;BME280;4590;51.462;6.692;2024-03-08T17:19:30;100531.03;;;11.72;38.48
9110;BME280;4590;51.462;6.692;2024-03-08T17:21:55;100543.91;;;11.54;39.03
9110;BME280;4590;51.462;6.692;2024-03-08T17:24:21;100530.34;;;11.66;38.79
9110;BME280;4590;51.462;6.692;2024-03-08T17:26:49;100526.31;;;11.72;39.02
9110;BME280;4590;51.462;6.692;2024-03-08T17:29:15;100535.63;;;11.45;38.99
9110;BME280;4590;51.462;6.692;2024-03-08T17:31:40;100524.78;;;11.49;39.08
9110;BME280;4590;51.462;6.692;2024-03-08T17:34:07;100532.06;;;11.45;39.06
9110;BME280;4590;51.462;6.692;2024-03-08T17:36:34;100536.47;;;11.23;39.53
9110;BME280;4590;51.462;6.692;2024-03-08T17:39:00;100538.31;;;11.37;39.32
9110;BME280;4590;51.462;6.692;2024-03-08T17:41:26;100528.81;;;11.51;39.30
9110;BME280;4590;51.462;6.692;2024-03-08T17:43:51;100536.59;;;11.49;39.16
9110;BME280;4590;51.462;6.692;2024-03-08T17:46:16;100538.00;;;11.38;39.33
9110;BME280;4590;51.462;6.692;2024-03-08T17:48:42;100542.97;;;11.28;39.43
9110;BME280;4590;51.462;6.692;2024-03-08T17:51:07;100541.53;;;11.30;39.40
9110;BME280;4590;51.462;6.692;2024-03-08T17:53:32;100553.72;;;11.38;39.48
9110;BME280;4590;51.462;6.692;2024-03-08T17:55:59;100544.09;;;11.27;39.79
9110;BME280;4590;51.462;6.692;2024-03-08T17:58:24;100546.25;;;11.30;39.63
9110;BME280;4590;51.462;6.692;2024-03-08T18:00:51;100548.97;;;10.99;39.76
9110;BME280;4590;51.462;6.692;2024-03-08T18:03:17;100546.63;;;11.14;39.78
9110;BME280;4590;51.462;6.692;2024-03-08T18:05:43;100549.19;;;11.11;40.25
9110;BME280;4590;51.462;6.692;2024-03-08T18:08:10;100547.59;;;11.18;40.04
9110;BME280;4590;51.462;6.692;2024-03-08T18:10:36;100540.44;;;11.09;40.19
9110;BME280;4590;51.462;6.692;2024-03-08T18:13:04;100543.16;;;11.00;40.39
9110;BME280;4590;51.462;6.692;2024-03-08T18:15:38;100538.75;;;10.99;40.33
9110;BME280;4590;51.462;6.692;2024-03-08T18:18:05;100533.88;;;10.74;40.78
9110;BME280;4590;51.462;6.692;2024-03-08T18:20:34;100528.31;;;10.87;40.14
9110;BME280;4590;51.462;6.692;2024-03-08T18:23:09;100532.13;;;10.78;40.85
9110;BME280;4590;51.462;6.692;2024-03-08T18:25:35;100523.28;;;10.89;40.53
9110;BME280;4590;51.462;6.692;2024-03-08T18:28:03;100526.81;;;10.81;40.56
9110;BME280;4590;51.462;6.692;2024-03-08T18:30:37;100520.44;;;10.95;40.66
9110;BME280;4590;51.462;6.692;2024-03-08T18:33:04;100526.75;;;10.95;40.49
9110;BME280;4590;51.462;6.692;2024-03-08T18:35:30;100531.22;;;10.46;41.18
9110;BME280;4590;51.462;6.692;2024-03-08T18:37:55;100521.38;;;10.68;40.82
9110;BME280;4590;51.462;6.692;2024-03-08T18:40:21;100524.63;;;10.70;41.20
9110;BME280;4590;51.462;6.692;2024-03-08T18:42:51;100515.69;;;10.14;41.84
9110;BME280;4590;51.462;6.692;2024-03-08T18:45:17;100520.59;;;10.31;41.27
9110;BME280;4590;51.462;6.692;2024-03-08T18:47:47;100506.53;;;10.55;41.39
9110;BME280;4590;51.462;6.692;2024-03-08T18:50:14;100511.91;;;10.60;41.38